Time;durP1;ratioP1;P1;durP2;ratioP2;P2;SDS_P1;SDS_P2;PMS_P1;PMS_P2;Temp;Humidity;BMP_temperature;BMP_pressure;BME280_temperature;BME280_humidity;BME280_pressure;Samples;Min_cycle;Max_cycle;Signal;HPM_P1;HPM_P2
2023/09/02 00:01:26;;;;;;;8.13;5.75;;;17.60;99.90;;;;;;5110873;28;20114;-68
2023/09/02 00:03:52;;;;;;;10.73;5.68;;;17.50;99.90;;;;;;5107331;28;20032;-68
2023/09/02 00:06:17;;;;;;;9.57;6.10;;;17.60;99.90;;;;;;5106319;28;20102;-68
2023/09/02 00:08:43;;;;;;;8.23;5.32;;;17.50;99.90;;;;;;5108261;28;20047;-67
2023/09/02 00:11:09;;;;;;;8.40;5.03;;;17.60;99.90;;;;;;5108009;28;20028;-67
2023/09/02 00:13:35;;;;;;;11.68;4.38;;;17.60;99.90;;;;;;5106250;28;20036;-67
2023/09/02 00:16:00;;;;;;;7.28;6.10;;;17.50;99.90;;;;;;5109689;28;20024;-68
2023/09/02 00:18:28;;;;;;;12.60;7.00;;;17.50;99.90;;;;;;5106540;28;20038;-68
2023/09/02 00:20:54;;;;;;;9.73;7.28;;;17.60;99.90;;;;;;5110035;28;20110;-67
2023/09/02 00:23:20;;;;;;;10.30;5.65;;;17.60;99.90;;;;;;5109553;28;20107;-67
2023/09/02 00:25:45;;;;;;;9.82;5.25;;;17.50;99.90;;;;;;5111724;28;20085;-67
2023/09/02 00:28:11;;;;;;;8.88;6.00;;;17.60;99.90;;;;;;5111465;28;20028;-67
2023/09/02 00:30:36;;;;;;;12.55;8.05;;;17.50;99.90;;;;;;5101545;28;20059;-67
2023/09/02 00:33:02;;;;;;;9.95;5.53;;;17.50;99.90;;;;;;5107151;28;20085;-67
2023/09/02 00:35:27;;;;;;;12.15;5.88;;;17.50;99.90;;;;;;5104662;28;20032;-68
2023/09/02 00:37:54;;;;;;;9.77;6.82;;;17.50;99.90;;;;;;5111716;28;20027;-68
2023/09/02 00:40:22;;;;;;;12.00;7.10;;;17.50;99.90;;;;;;5115231;28;20027;-68
2023/09/02 00:42:48;;;;;;;12.80;5.22;;;17.60;99.90;;;;;;5113945;28;20020;-67
2023/09/02 00:45:15;;;;;;;8.23;5.30;;;17.60;99.90;;;;;;5114386;28;20144;-67
2023/09/02 00:47:42;;;;;;;6.65;5.20;;;17.60;99.90;;;;;;5113518;28;20368;-67
2023/09/02 00:50:07;;;;;;;11.15;7.20;;;17.60;99.90;;;;;;5114885;28;20023;-67
2023/09/02 00:52:33;;;;;;;8.32;6.10;;;17.50;99.90;;;;;;5101994;28;20073;-68
2023/09/02 00:55:00;;;;;;;14.57;7.45;;;17.50;99.90;;;;;;5107110;28;20387;-67
2023/09/02 00:57:26;;;;;;;7.57;6.35;;;17.50;99.90;;;;;;5113714;28;20034;-66
2023/09/02 00:59:52;;;;;;;9.00;5.63;;;17.50;99.90;;;;;;5114628;28;20032;-66
2023/09/02 01:02:20;;;;;;;8.88;6.35;;;17.50;99.90;;;;;;5114337;28;20032;-67
2023/09/02 01:04:45;;;;;;;12.90;7.65;;;17.50;99.90;;;;;;5114117;28;20430;-67
2023/09/02 01:07:11;;;;;;;10.88;6.75;;;17.50;99.90;;;;;;5110914;28;20134;-68
2023/09/02 01:09:36;;;;;;;8.88;5.20;;;17.50;99.90;;;;;;5113621;28;20027;-68
2023/09/02 01:12:02;;;;;;;8.98;6.68;;;17.50;99.90;;;;;;5112268;28;20088;-67
2023/09/02 01:14:28;;;;;;;9.95;7.45;;;17.50;99.90;;;;;;5113184;28;20028;-68
2023/09/02 01:16:53;;;;;;;13.20;7.22;;;17.50;99.90;;;;;;5112644;28;20024;-67
2023/09/02 01:19:20;;;;;;;8.43;5.18;;;17.50;99.90;;;;;;5113653;28;20080;-67
2023/09/02 01:22:04;;;;;;;16.80;8.68;;;17.50;99.90;;;;;;5114082;28;20028;-67
2023/09/02 01:24:48;;;;;;;8.65;6.10;;;17.50;99.90;;;;;;5113495;28;20043;-67
2023/09/02 01:27:27;;;;;;;10.02;7.40;;;17.50;99.90;;;;;;5101524;28;20012;-68
2023/09/02 01:29:57;;;;;;;11.43;6.10;;;17.50;99.90;;;;;;5101748;28;20055;-67
2023/09/02 01:32:28;;;;;;;12.57;7.65;;;17.50;99.90;;;;;;5110296;28;20052;-68
2023/09/02 01:34:56;;;;;;;15.55;6.90;;;17.50;99.90;;;;;;5113833;28;20028;-67
2023/09/02 01:37:24;;;;;;;9.05;6.03;;;17.50;99.90;;;;;;5112676;28;20038;-67
2023/09/02 01:39:51;;;;;;;10.80;5.13;;;17.50;99.90;;;;;;5113519;28;20130;-67
2023/09/02 01:42:18;;;;;;;8.70;4.88;;;17.50;99.90;;;;;;5104094;28;20050;-67
2023/09/02 01:44:44;;;;;;;9.35;5.30;;;17.50;99.90;;;;;;5100184;28;20039;-67
2023/09/02 01:47:11;;;;;;;9.65;4.97;;;17.40;99.90;;;;;;5106540;28;20148;-67
2023/09/02 01:49:37;;;;;;;10.20;5.07;;;17.40;99.90;;;;;;5107254;28;20023;-67
2023/09/02 01:52:03;;;;;;;7.55;4.35;;;17.40;99.90;;;;;;5105995;28;20533;-67
2023/09/02 01:54:29;;;;;;;6.65;4.35;;;17.40;99.90;;;;;;5102781;28;20020;-67
2023/09/02 01:56:56;;;;;;;6.03;3.47;;;17.40;99.90;;;;;;5108139;28;20141;-68
2023/09/02 01:59:21;;;;;;;7.25;4.53;;;17.40;99.90;;;;;;5107772;28;20032;-67
2023/09/02 02:01:47;;;;;;;9.27;3.70;;;17.40;99.90;;;;;;5106988;28;20111;-66
2023/09/02 02:04:40;;;;;;;13.35;5.45;;;17.40;99.90;;;;;;5105547;28;20032;-67
2023/09/02 02:07:13;;;;;;;3.45;3.13;;;17.40;99.90;;;;;;5105664;28;20057;-68
2023/09/02 02:09:42;;;;;;;7.35;4.38;;;17.40;99.90;;;;;;5102869;28;20028;-68
2023/09/02 02:12:08;;;;;;;7.13;4.82;;;17.30;99.90;;;;;;5100984;28;20410;-67
2023/09/02 02:14:35;;;;;;;3.95;2.63;;;17.30;99.90;;;;;;5107798;28;20107;-67
2023/09/02 02:17:02;;;;;;;6.25;3.33;;;17.30;99.90;;;;;;5102690;28;20021;-66
2023/09/02 02:19:28;;;;;;;5.75;4.18;;;17.30;99.90;;;;;;5103040;28;20032;-67
2023/09/02 02:21:54;;;;;;;6.72;4.43;;;17.30;99.90;;;;;;5106161;28;20441;-67
2023/09/02 02:24:19;;;;;;;4.07;3.50;;;17.30;99.90;;;;;;5104373;28;20032;-67
2023/09/02 02:26:45;;;;;;;5.72;4.32;;;17.30;99.90;;;;;;5106524;28;20023;-67
2023/09/02 02:29:10;;;;;;;5.32;4.43;;;17.30;99.90;;;;;;5104084;28;20052;-67
2023/09/02 02:31:36;;;;;;;8.75;5.15;;;17.30;99.90;;;;;;5102295;28;20130;-67
2023/09/02 02:34:02;;;;;;;8.77;4.45;;;17.40;99.90;;;;;;5102979;28;20066;-67
2023/09/02 02:36:28;;;;;;;10.30;5.18;;;17.40;99.90;;;;;;5105543;28;20447;-67
2023/09/02 02:38:53;;;;;;;9.55;4.10;;;17.40;99.90;;;;;;5106093;28;20156;-67
2023/09/02 02:41:19;;;;;;;5.85;5.25;;;17.40;99.90;;;;;;5107207;28;20110;-67
2023/09/02 02:43:45;;;;;;;8.68;4.60;;;17.40;99.90;;;;;;5101336;28;20079;-67
2023/09/02 02:46:10;;;;;;;5.05;3.60;;;17.40;99.90;;;;;;5103860;28;20055;-67
2023/09/02 02:48:36;;;;;;;9.52;5.20;;;17.40;99.90;;;;;;5102492;28;20447;-68
2023/09/02 02:51:02;;;;;;;8.77;3.97;;;17.40;99.90;;;;;;5105937;28;20062;-67
2023/09/02 02:53:28;;;;;;;9.77;4.88;;;17.50;99.90;;;;;;5103077;28;20028;-67
2023/09/02 02:55:54;;;;;;;10.65;4.43;;;17.50;99.90;;;;;;5101813;28;20415;-67
2023/09/02 02:58:19;;;;;;;4.03;2.60;;;17.50;99.90;;;;;;5104806;28;20055;-67
2023/09/02 03:00:46;;;;;;;6.40;4.43;;;17.50;99.90;;;;;;5102774;28;20020;-68
2023/09/02 03:03:12;;;;;;;7.97;4.25;;;17.50;99.90;;;;;;5108737;28;20035;-67
2023/09/02 03:05:41;;;;;;;8.60;4.35;;;17.50;99.90;;;;;;5107542;27;20019;-68
2023/09/02 03:08:08;;;;;;;4.63;3.95;;;17.50;99.90;;;;;;5108773;28;20092;-67
2023/09/02 03:10:35;;;;;;;5.03;3.17;;;17.50;99.90;;;;;;5109670;28;20063;-66
2023/09/02 03:13:05;;;;;;;6.15;3.47;;;17.50;99.90;;;;;;5105661;28;20093;-66
2023/09/02 03:15:31;;;;;;;5.97;4.55;;;17.50;99.90;;;;;;5106371;28;20039;-67
2023/09/02 03:17:56;;;;;;;9.88;5.03;;;17.50;99.90;;;;;;5111210;28;20047;-67
2023/09/02 03:20:22;;;;;;;5.95;4.85;;;17.50;99.90;;;;;;5108250;28;20471;-67
2023/09/02 03:22:48;;;;;;;7.43;4.75;;;17.50;99.90;;;;;;5105842;28;20151;-68
2023/09/02 03:25:13;;;;;;;11.07;4.75;;;17.60;99.90;;;;;;5107615;28;20158;-67
2023/09/02 03:27:39;;;;;;;10.95;5.30;;;17.60;99.90;;;;;;5098961;28;20055;-67
2023/09/02 03:30:12;;;;;;;6.03;4.47;;;17.60;99.90;;;;;;5107696;28;20288;-66
2023/09/02 03:32:37;;;;;;;4.93;4.47;;;17.60;99.90;;;;;;5104986;28;20054;-68
2023/09/02 03:35:04;;;;;;;12.80;5.28;;;17.60;99.90;;;;;;5107743;28;20110;-67
2023/09/02 03:37:30;;;;;;;6.70;2.90;;;17.60;99.90;;;;;;5108728;28;20498;-66
2023/09/02 03:39:57;;;;;;;7.75;2.78;;;17.60;99.90;;;;;;5106547;28;20020;-67
2023/09/02 03:42:22;;;;;;;9.85;5.25;;;17.60;99.90;;;;;;5106161;28;20024;-67
2023/09/02 03:44:48;;;;;;;7.32;3.30;;;17.60;99.90;;;;;;5105295;28;20104;-67
2023/09/02 03:47:14;;;;;;;10.68;5.65;;;17.60;99.90;;;;;;5109325;28;20042;-67
2023/09/02 03:49:39;;;;;;;7.57;4.72;;;17.60;99.90;;;;;;5106105;28;20024;-67
2023/09/02 03:52:05;;;;;;;5.53;3.25;;;17.60;99.90;;;;;;5107427;28;20036;-67
2023/09/02 03:54:31;;;;;;;9.32;3.67;;;17.70;99.90;;;;;;5104672;28;20020;-67
2023/09/02 03:56:56;;;;;;;5.10;3.53;;;17.70;99.90;;;;;;5108772;28;20460;-67
2023/09/02 03:59:22;;;;;;;7.35;5.15;;;17.70;99.90;;;;;;5109293;28;20043;-67
2023/09/02 04:01:48;;;;;;;9.15;5.00;;;17.70;99.90;;;;;;5105678;28;20054;-67
2023/09/02 04:04:13;;;;;;;7.90;4.18;;;17.70;99.90;;;;;;5107188;28;20023;-67
2023/09/02 04:06:39;;;;;;;13.02;4.60;;;17.70;99.90;;;;;;5110839;28;20019;-67
2023/09/02 04:09:08;;;;;;;6.35;4.55;;;17.70;99.90;;;;;;5105236;28;20153;-67
2023/09/02 04:11:34;;;;;;;4.70;4.07;;;17.70;99.90;;;;;;5108176;28;20036;-68
2023/09/02 04:14:00;;;;;;;14.80;5.07;;;17.70;99.90;;;;;;5105425;28;20023;-68
2023/09/02 04:16:26;;;;;;;8.38;5.07;;;17.60;99.90;;;;;;5108604;28;20036;-67
2023/09/02 04:18:52;;;;;;;6.78;4.43;;;17.70;99.90;;;;;;5108635;28;20371;-68
2023/09/02 04:21:17;;;;;;;7.95;3.78;;;17.60;99.90;;;;;;5103374;27;20020;-66
2023/09/02 04:23:43;;;;;;;9.45;4.32;;;17.70;99.90;;;;;;5104621;28;20380;-66
2023/09/02 04:26:09;;;;;;;4.93;3.00;;;17.70;99.90;;;;;;5105719;28;20027;-67
2023/09/02 04:28:35;;;;;;;11.18;4.60;;;17.70;99.90;;;;;;5107229;28;20046;-67
2023/09/02 04:31:00;;;;;;;6.40;3.72;;;17.60;99.90;;;;;;5106257;28;20102;-67
2023/09/02 04:33:26;;;;;;;5.13;3.00;;;17.60;99.90;;;;;;5104786;28;20035;-67
2023/09/02 04:35:52;;;;;;;9.73;5.88;;;17.60;99.90;;;;;;5106422;28;20019;-67
2023/09/02 04:38:18;;;;;;;7.13;4.88;;;17.60;99.90;;;;;;5105326;27;20024;-67
2023/09/02 04:40:44;;;;;;;8.43;3.85;;;17.50;99.90;;;;;;5108604;28;20073;-67
2023/09/02 04:43:13;;;;;;;3.22;2.38;;;17.50;99.90;;;;;;5105922;28;20026;-66
2023/09/02 04:45:39;;;;;;;6.60;4.38;;;17.50;99.90;;;;;;5106265;28;20505;-66
2023/09/02 04:48:08;;;;;;;10.52;4.55;;;17.50;99.90;;;;;;5102711;28;20459;-68
2023/09/02 04:50:35;;;;;;;4.68;3.53;;;17.50;99.90;;;;;;5107058;28;20027;-68
2023/09/02 04:53:02;;;;;;;6.63;4.10;;;17.50;99.90;;;;;;5103452;28;20028;-67
2023/09/02 04:55:28;;;;;;;7.50;3.92;;;17.60;99.90;;;;;;5103445;28;20028;-68
2023/09/02 04:57:55;;;;;;;13.20;5.88;;;17.60;99.90;;;;;;5105788;28;20527;-68
2023/09/02 05:00:28;;;;;;;8.30;3.53;;;17.60;99.90;;;;;;5106133;28;20127;-68
2023/09/02 05:02:54;;;;;;;11.25;3.33;;;17.60;99.90;;;;;;5103697;28;20467;-67
2023/09/02 05:05:22;;;;;;;8.43;4.38;;;17.50;99.90;;;;;;5101894;28;20024;-66
2023/09/02 05:07:48;;;;;;;8.98;5.15;;;17.60;99.90;;;;;;5102751;28;20378;-67
2023/09/02 05:10:14;;;;;;;8.05;4.60;;;17.60;99.90;;;;;;5106199;28;20034;-67
2023/09/02 05:12:41;;;;;;;8.93;3.75;;;17.60;99.90;;;;;;5105251;28;20043;-68
2023/09/02 05:15:07;;;;;;;6.38;4.03;;;17.70;99.90;;;;;;5105745;28;20024;-66
2023/09/02 05:17:33;;;;;;;6.65;4.45;;;17.70;99.90;;;;;;5108274;27;20028;-68
2023/09/02 05:19:59;;;;;;;7.07;4.82;;;17.60;99.90;;;;;;5104320;28;20038;-67
2023/09/02 05:22:25;;;;;;;5.05;3.38;;;17.70;99.90;;;;;;5107934;28;20042;-67
2023/09/02 05:24:50;;;;;;;4.72;3.15;;;17.70;99.90;;;;;;5104140;28;20024;-67
2023/09/02 05:27:16;;;;;;;9.93;3.78;;;17.70;99.90;;;;;;5101290;27;20039;-67
2023/09/02 05:29:42;;;;;;;17.63;5.00;;;17.70;99.90;;;;;;5104309;28;20103;-67
2023/09/02 05:32:08;;;;;;;8.82;4.07;;;17.70;99.90;;;;;;5105549;28;20060;-67
2023/09/02 05:34:34;;;;;;;8.18;5.35;;;17.80;99.90;;;;;;5103369;28;20457;-67
2023/09/02 05:37:00;;;;;;;7.85;5.15;;;17.80;99.90;;;;;;5107902;28;20053;-67
2023/09/02 05:39:26;;;;;;;5.40;4.38;;;17.80;99.90;;;;;;5103643;28;20027;-66
2023/09/02 05:41:51;;;;;;;11.82;5.30;;;17.80;99.90;;;;;;5105314;28;20459;-67
2023/09/02 05:44:17;;;;;;;4.40;3.92;;;17.80;99.90;;;;;;5104641;28;20089;-67
2023/09/02 05:46:42;;;;;;;8.27;4.47;;;17.90;99.90;;;;;;5108014;28;20360;-68
2023/09/02 05:49:10;;;;;;;12.32;6.18;;;17.90;99.90;;;;;;5105416;28;20475;-68
2023/09/02 05:51:36;;;;;;;7.80;4.38;;;17.90;99.90;;;;;;5104414;28;20044;-68
2023/09/02 05:54:01;;;;;;;5.10;3.45;;;17.90;99.90;;;;;;5103431;28;20027;-68
2023/09/02 05:56:27;;;;;;;7.10;6.10;;;18.00;99.90;;;;;;5106355;28;20047;-67
2023/09/02 05:58:53;;;;;;;7.10;3.20;;;18.00;99.90;;;;;;5105285;28;20486;-67
2023/09/02 06:01:18;;;;;;;8.45;5.20;;;18.10;99.90;;;;;;5108965;28;20035;-67
2023/09/02 06:03:44;;;;;;;8.73;3.65;;;18.10;99.90;;;;;;5103558;28;20028;-67
2023/09/02 06:06:13;;;;;;;9.27;5.45;;;18.20;99.90;;;;;;5106051;28;20035;-67
2023/09/02 06:08:39;;;;;;;8.25;4.13;;;18.20;99.90;;;;;;5104189;28;20131;-67
2023/09/02 06:11:04;;;;;;;8.45;5.85;;;18.30;99.90;;;;;;5101893;28;20124;-66
2023/09/02 06:13:30;;;;;;;8.90;4.68;;;18.30;99.90;;;;;;5104106;28;20088;-67
2023/09/02 06:16:01;;;;;;;7.82;4.95;;;18.40;99.90;;;;;;5108336;28;20027;-67
2023/09/02 06:18:27;;;;;;;8.98;5.88;;;18.40;99.90;;;;;;5105197;28;20069;-67
2023/09/02 06:20:53;;;;;;;7.65;5.88;;;18.50;99.90;;;;;;5101767;28;20023;-67
2023/09/02 06:23:19;;;;;;;9.13;5.35;;;18.60;99.90;;;;;;5102835;28;20062;-67
2023/09/02 06:25:45;;;;;;;9.65;3.45;;;18.70;99.90;;;;;;5106200;28;20109;-67
2023/09/02 06:28:10;;;;;;;8.88;4.63;;;18.80;99.90;;;;;;5104385;28;20059;-66
2023/09/02 06:30:36;;;;;;;7.35;4.63;;;18.90;99.90;;;;;;5101285;28;20036;-67
2023/09/02 06:33:03;;;;;;;8.82;4.70;;;19.00;99.90;;;;;;5108221;28;20043;-67
2023/09/02 06:35:31;;;;;;;7.22;5.07;;;19.10;99.90;;;;;;5110379;28;20031;-66
2023/09/02 06:37:57;;;;;;;5.40;4.35;;;19.10;99.90;;;;;;5109308;28;20073;-67
2023/09/02 06:40:22;;;;;;;4.28;3.70;;;19.20;99.90;;;;;;5111612;28;20032;-67
2023/09/02 06:42:48;;;;;;;8.02;4.20;;;19.30;99.90;;;;;;5109380;28;20098;-66
2023/09/02 06:45:13;;;;;;;5.57;2.75;;;19.40;99.90;;;;;;5110075;28;20030;-68
2023/09/02 06:47:39;;;;;;;10.30;4.43;;;19.50;99.90;;;;;;5106106;28;20131;-66
2023/09/02 06:50:05;;;;;;;9.68;4.40;;;19.60;99.90;;;;;;5100761;28;20040;-67
2023/09/02 06:52:31;;;;;;;6.35;3.75;;;19.70;99.90;;;;;;5111175;28;20043;-68
2023/09/02 06:54:56;;;;;;;13.45;4.70;;;19.70;99.90;;;;;;5107178;28;20413;-66
2023/09/02 06:57:22;;;;;;;6.95;3.90;;;19.70;99.90;;;;;;5106975;28;20023;-67
2023/09/02 06:59:47;;;;;;;5.85;4.25;;;19.80;99.90;;;;;;5107162;28;20521;-67
2023/09/02 07:02:13;;;;;;;4.10;3.17;;;19.80;99.90;;;;;;5106526;28;20058;-66
2023/09/02 07:04:39;;;;;;;5.90;4.30;;;19.90;99.90;;;;;;5116444;28;20114;-67
2023/09/02 07:07:04;;;;;;;4.93;4.50;;;20.00;99.90;;;;;;5116646;28;20043;-67
2023/09/02 07:09:31;;;;;;;7.40;4.40;;;20.00;99.90;;;;;;5116824;28;20070;-66
2023/09/02 07:11:57;;;;;;;5.45;4.20;;;20.10;99.90;;;;;;5116674;28;20067;-66
2023/09/02 07:14:22;;;;;;;4.47;3.47;;;20.10;99.90;;;;;;5116703;28;20024;-67
2023/09/02 07:16:50;;;;;;;6.18;2.90;;;20.10;99.90;;;;;;5115740;28;20100;-67
2023/09/02 07:19:15;;;;;;;3.85;2.65;;;20.10;99.90;;;;;;5115287;28;20107;-67
2023/09/02 07:21:41;;;;;;;4.22;3.50;;;20.20;99.90;;;;;;5116235;28;20074;-67
2023/09/02 07:24:06;;;;;;;7.07;4.07;;;20.20;99.90;;;;;;5116519;28;20076;-67
2023/09/02 07:26:32;;;;;;;3.55;3.13;;;20.10;99.90;;;;;;5114784;27;20028;-67
2023/09/02 07:28:58;;;;;;;2.97;2.53;;;20.20;99.90;;;;;;5115082;28;20046;-66
2023/09/02 07:31:24;;;;;;;7.00;3.65;;;20.20;99.90;;;;;;5116448;28;20038;-66
2023/09/02 07:33:50;;;;;;;3.83;2.20;;;20.20;99.90;;;;;;5116779;28;20032;-66
2023/09/02 07:36:16;;;;;;;8.27;2.75;;;20.30;99.90;;;;;;5115285;28;20034;-67
2023/09/02 07:38:41;;;;;;;6.88;3.70;;;20.30;99.90;;;;;;5116456;28;20427;-66
2023/09/02 07:41:08;;;;;;;4.18;2.38;;;20.30;99.90;;;;;;5115923;28;20062;-66
2023/09/02 07:43:34;;;;;;;4.50;2.10;;;20.20;99.90;;;;;;5115733;28;20119;-67
2023/09/02 07:45:59;;;;;;;5.90;2.47;;;20.10;99.90;;;;;;5114358;28;20055;-67
2023/09/02 07:48:25;;;;;;;5.00;3.75;;;20.00;99.90;;;;;;5115950;28;20107;-67
2023/09/02 07:50:50;;;;;;;3.40;2.95;;;20.00;99.90;;;;;;5116567;28;20032;-67
2023/09/02 07:53:16;;;;;;;7.78;3.67;;;19.90;99.90;;;;;;5115575;28;20043;-67
2023/09/02 07:55:41;;;;;;;4.05;3.22;;;19.90;99.90;;;;;;5108111;28;20031;-66
2023/09/02 07:58:07;;;;;;;4.97;2.58;;;19.90;99.90;;;;;;5109752;28;20103;-66
2023/09/02 08:00:34;;;;;;;6.57;2.95;;;19.90;99.90;;;;;;5115593;28;20020;-66
2023/09/02 08:02:59;;;;;;;8.75;3.75;;;19.80;99.90;;;;;;5115311;28;20059;-66
2023/09/02 08:05:25;;;;;;;3.28;2.78;;;19.70;99.90;;;;;;5112530;28;20439;-67
2023/09/02 08:07:50;;;;;;;14.23;3.13;;;19.70;99.90;;;;;;5115800;28;20040;-66
2023/09/02 08:10:16;;;;;;;6.10;3.47;;;19.70;99.90;;;;;;5115898;28;20110;-66
2023/09/02 08:12:42;;;;;;;11.98;2.83;;;19.70;99.90;;;;;;5115183;28;20044;-66
2023/09/02 08:15:10;;;;;;;7.63;3.08;;;19.70;99.90;;;;;;5113262;28;20032;-66
2023/09/02 08:17:40;;;;;;;2.65;2.42;;;19.80;99.90;;;;;;5115036;28;20030;-67
2023/09/02 08:20:06;;;;;;;5.28;2.58;;;19.80;99.90;;;;;;5115273;28;20114;-67
2023/09/02 08:22:32;;;;;;;3.00;2.80;;;19.80;99.90;;;;;;5115293;28;20406;-67
2023/09/02 08:24:57;;;;;;;5.50;3.40;;;19.80;99.90;;;;;;5114243;28;20072;-67
2023/09/02 08:27:24;;;;;;;6.82;5.32;;;19.80;99.90;;;;;;5115216;28;20028;-66
2023/09/02 08:29:51;;;;;;;2.60;2.08;;;19.80;99.90;;;;;;5104076;28;20028;-67
2023/09/02 08:32:16;;;;;;;6.50;4.72;;;19.90;99.90;;;;;;5105663;28;20031;-67
2023/09/02 08:34:42;;;;;;;3.35;3.10;;;20.00;99.90;;;;;;5115766;28;20030;-66
2023/09/02 08:37:08;;;;;;;7.28;3.20;;;20.00;99.90;;;;;;5111872;28;20032;-66
2023/09/02 08:39:34;;;;;;;6.15;3.72;;;20.10;99.90;;;;;;5110523;28;20038;-68
2023/09/02 08:41:59;;;;;;;4.00;2.92;;;20.10;99.90;;;;;;5112863;28;20027;-66
2023/09/02 08:44:32;;;;;;;11.98;4.75;;;20.20;99.90;;;;;;5115205;28;20080;-67
2023/09/02 08:47:04;;;;;;;4.10;1.77;;;20.30;99.90;;;;;;5112371;28;20060;-66
2023/09/02 08:49:30;;;;;;;;;;;20.50;99.90;;;;;;5115259;28;20030;-65
2023/09/02 08:51:56;;;;;;;4.60;1.73;;;20.70;99.90;;;;;;5115074;28;19911;-66
2023/09/02 08:54:23;;;;;;;3.85;2.22;;;20.90;99.90;;;;;;5115021;28;20081;-66
2023/09/02 08:56:49;;;;;;;7.57;2.83;;;21.40;99.90;;;;;;5112886;28;20076;-66
2023/09/02 08:59:15;;;;;;;3.33;2.10;;;21.80;99.90;;;;;;5113617;28;20023;-66
2023/09/02 09:01:45;;;;;;;2.15;1.60;;;22.20;99.90;;;;;;5114215;28;20382;-66
2023/09/02 09:04:13;;;;;;;5.53;2.88;;;22.40;99.90;;;;;;5115476;28;20106;-66
2023/09/02 09:06:40;;;;;;;4.03;1.83;;;22.50;99.90;;;;;;5112970;28;20020;-66
2023/09/02 09:09:10;;;;;;;4.13;2.10;;;22.50;99.90;;;;;;5113728;27;20051;-66
2023/09/02 09:11:41;;;;;;;7.22;3.90;;;22.40;99.90;;;;;;5113807;28;20027;-66
2023/09/02 09:14:29;;;;;;;28.15;17.27;;;22.20;99.90;;;;;;5114896;28;20114;-66
2023/09/02 09:16:56;;;;;;;32.38;19.33;;;22.00;99.90;;;;;;5112271;28;20035;-66
2023/09/02 09:19:28;;;;;;;35.47;20.50;;;21.80;99.90;;;;;;5094027;28;20020;-66
2023/09/02 09:21:57;;;;;;;34.80;21.77;;;21.60;99.90;;;;;;5110904;28;20024;-65
2023/09/02 09:24:23;;;;;;;34.70;19.48;;;21.50;99.90;;;;;;5113008;28;20027;-66
2023/09/02 09:26:49;;;;;;;35.42;20.83;;;21.50;99.90;;;;;;5108365;28;20450;-66
2023/09/02 09:29:16;;;;;;;36.63;20.33;;;21.50;99.90;;;;;;5096402;28;20752;-67
2023/09/02 09:31:42;;;;;;;38.03;20.60;;;21.50;99.90;;;;;;5101946;28;20043;-66
2023/09/02 09:34:08;;;;;;;34.53;20.02;;;21.70;99.90;;;;;;5114266;28;20034;-66
2023/09/02 09:36:34;;;;;;;34.83;21.23;;;21.80;99.90;;;;;;5107962;28;20028;-65
2023/09/02 09:39:05;;;;;;;35.75;21.85;;;21.90;99.90;;;;;;5113515;28;20019;-65
2023/09/02 09:41:31;;;;;;;35.78;21.85;;;22.10;99.90;;;;;;5113756;28;20459;-66
2023/09/02 09:44:11;;;;;;;35.38;20.83;;;22.20;99.90;;;;;;5113170;27;20123;-66
2023/09/02 09:46:42;;;;;;;36.95;21.13;;;22.20;99.90;;;;;;5111862;28;20035;-66
2023/09/02 09:49:20;;;;;;;33.70;19.13;;;22.20;99.90;;;;;;5113956;28;20091;-66
2023/09/02 09:51:45;;;;;;;30.35;18.75;;;22.10;99.90;;;;;;5113862;28;20048;-65
2023/09/02 09:54:11;;;;;;;32.40;20.05;;;22.10;99.90;;;;;;5112363;28;20028;-65
2023/09/02 09:56:42;;;;;;;33.17;20.58;;;22.00;99.90;;;;;;5111769;28;20084;-66
2023/09/02 09:59:08;;;;;;;30.55;20.15;;;22.10;99.90;;;;;;5094648;28;20066;-65
2023/09/02 10:01:35;;;;;;;28.85;18.33;;;22.20;99.90;;;;;;5111423;28;20046;-65
2023/09/02 10:04:07;;;;;;;27.38;17.05;;;22.30;99.90;;;;;;5112298;28;20024;-66
2023/09/02 10:06:39;;;;;;;28.02;16.70;;;22.40;99.90;;;;;;5110218;28;20027;-66
2023/09/02 10:09:04;;;;;;;;;;;22.60;99.90;;;;;;5110928;28;20043;-66
2023/09/02 10:11:30;;;;;;;26.30;16.30;;;22.90;99.90;;;;;;5110598;28;19910;-66
2023/09/02 10:13:57;;;;;;;25.95;15.60;;;23.20;99.90;;;;;;5107198;28;20030;-66
2023/09/02 10:16:24;;;;;;;25.30;14.77;;;23.50;99.90;;;;;;5107101;28;20043;-66
2023/09/02 10:18:51;;;;;;;24.90;14.82;;;23.60;99.90;;;;;;5104964;28;20046;-65
2023/09/02 10:21:18;;;;;;;21.70;12.82;;;23.80;99.90;;;;;;5111910;28;20102;-66
2023/09/02 10:23:55;;;;;;;23.30;13.82;;;24.10;99.90;;;;;;5112677;28;20023;-65
2023/09/02 10:26:43;;;;;;;24.45;13.70;;;24.40;99.90;;;;;;5109044;28;20486;-66
2023/09/02 10:29:10;;;;;;;22.75;13.75;;;24.60;99.90;;;;;;5108230;28;20051;-65
2023/09/02 10:31:40;;;;;;;21.35;13.60;;;24.70;99.90;;;;;;5102860;28;20085;-65
2023/09/02 10:34:31;;;;;;;22.38;14.27;;;24.90;99.90;;;;;;5102464;28;20457;-65
2023/09/02 10:36:57;;;;;;;21.60;13.27;;;25.10;99.90;;;;;;5102829;28;20032;-65
2023/09/02 10:39:31;;;;;;;20.05;12.07;;;25.40;99.90;;;;;;5104708;28;20047;-65
2023/09/02 10:42:00;;;;;;;23.17;13.63;;;25.70;99.90;;;;;;5108111;28;20027;-66
2023/09/02 10:44:26;;;;;;;18.58;11.20;;;25.90;99.90;;;;;;5105801;28;20103;-65
2023/09/02 10:46:53;;;;;;;20.35;12.40;;;26.00;99.90;;;;;;5107410;28;20110;-66
2023/09/02 10:49:24;;;;;;;19.27;11.45;;;25.90;99.90;;;;;;5109545;28;20042;-66
2023/09/02 10:51:51;;;;;;;20.55;11.93;;;25.90;99.90;;;;;;5108277;28;20383;-66
2023/09/02 10:54:16;;;;;;;20.20;12.02;;;25.80;99.90;;;;;;5113209;28;20038;-65
2023/09/02 10:56:42;;;;;;;20.55;12.27;;;25.90;99.90;;;;;;5111307;28;20096;-65
2023/09/02 10:59:07;;;;;;;18.05;10.65;;;25.90;99.90;;;;;;5113178;28;20023;-64
2023/09/02 11:01:43;;;;;;;18.90;11.27;;;26.20;99.90;;;;;;5108675;28;20037;-66
2023/09/02 11:04:08;;;;;;;18.48;10.35;;;26.70;99.90;;;;;;5112887;28;20023;-66
2023/09/02 11:06:34;;;;;;;16.40;9.75;;;27.00;99.90;;;;;;5112391;28;20080;-67
2023/09/02 11:08:59;;;;;;;19.35;10.15;;;27.10;99.90;;;;;;5097540;28;20060;-66
2023/09/02 11:12:06;;;;;;;15.85;8.82;;;27.00;99.90;;;;;;5109227;28;20028;-66
2023/09/02 11:14:31;;;;;;;13.88;7.63;;;26.80;99.90;;;;;;5092329;28;20028;-65
2023/09/02 11:17:29;;;;;;;14.20;7.55;;;26.70;99.90;;;;;;5105666;28;20475;-65
2023/09/02 11:19:58;;;;;;;13.25;7.20;;;26.80;99.90;;;;;;5109079;28;20493;-67
2023/09/02 11:22:44;;;;;;;12.90;7.13;;;26.70;99.90;;;;;;5103185;28;20077;-67
2023/09/02 11:25:10;;;;;;;11.75;6.70;;;26.70;99.90;;;;;;5117035;28;20027;-67
2023/09/02 11:27:56;;;;;;;10.73;7.40;;;27.10;99.90;;;;;;5115708;28;20084;-67
2023/09/02 11:30:23;;;;;;;9.40;6.00;;;28.00;99.90;;;;;;5115067;28;20468;-67
2023/09/02 11:32:49;;;;;;;9.60;5.97;;;28.40;99.90;;;;;;5111862;27;20024;-67
2023/09/02 11:35:41;;;;;;;9.80;6.20;;;28.30;99.90;;;;;;5105342;28;20034;-65
2023/09/02 11:38:20;;;;;;;9.82;6.43;;;28.10;99.90;;;;;;5103861;28;20028;-66
2023/09/02 11:40:46;;;;;;;10.63;6.95;;;27.80;99.90;;;;;;5105451;28;20032;-68
2023/09/02 11:43:18;;;;;;;12.88;6.97;;;27.60;99.90;;;;;;5102006;28;20507;-67
2023/09/02 11:45:45;;;;;;;10.68;6.68;;;27.80;99.90;;;;;;5107694;28;20031;-67
2023/09/02 11:48:12;;;;;;;9.82;5.82;;;28.30;99.90;;;;;;5101936;28;20027;-67
2023/09/02 11:50:39;;;;;;;10.98;6.53;;;29.00;99.20;;;;;;5103921;28;20028;-67
2023/09/02 11:53:05;;;;;;;14.63;6.30;;;30.00;98.00;;;;;;5106356;28;20050;-67
2023/09/02 11:55:32;;;;;;;8.23;4.82;;;30.80;97.60;;;;;;5109214;27;20081;-66
2023/09/02 11:58:05;;;;;;;10.60;6.28;;;31.40;96.90;;;;;;5108787;28;20118;-65
2023/09/02 12:00:31;;;;;;;9.38;4.75;;;31.80;95.70;;;;;;5113987;28;20445;-66
2023/09/02 12:02:59;;;;;;;6.95;4.45;;;31.80;94.90;;;;;;5113866;28;20043;-67
2023/09/02 12:05:25;;;;;;;8.75;5.35;;;31.30;95.50;;;;;;5114581;28;20020;-66
2023/09/02 12:07:51;;;;;;;10.10;5.40;;;30.70;95.70;;;;;;5115131;28;20126;-66
2023/09/02 12:10:17;;;;;;;8.90;5.95;;;29.90;96.40;;;;;;5116020;28;20032;-66
2023/09/02 12:12:47;;;;;;;9.77;6.10;;;29.30;97.20;;;;;;5114327;28;20175;-66
2023/09/02 12:15:14;;;;;;;12.35;8.02;;;28.70;97.50;;;;;;5098490;28;20483;-67
2023/09/02 12:17:41;;;;;;;10.20;6.38;;;28.40;98.00;;;;;;5107849;28;20032;-66
2023/09/02 12:20:09;;;;;;;10.30;6.40;;;28.40;98.10;;;;;;5108937;28;20036;-66
2023/09/02 12:22:36;;;;;;;11.00;6.25;;;28.30;98.60;;;;;;5109664;28;20402;-66
2023/09/02 12:25:17;;;;;;;10.50;6.45;;;28.00;98.80;;;;;;5112959;28;20036;-66
2023/09/02 12:27:43;;;;;;;10.90;6.43;;;27.70;98.70;;;;;;5111294;28;20503;-66
2023/09/02 12:30:11;;;;;;;9.85;6.35;;;27.50;98.90;;;;;;5109816;28;20039;-66
2023/09/02 12:32:37;;;;;;;9.88;6.40;;;27.50;99.00;;;;;;5107978;28;20079;-66
2023/09/02 12:35:10;;;;;;;11.68;6.97;;;27.30;99.30;;;;;;5101892;28;20063;-66
2023/09/02 12:37:36;;;;;;;9.98;6.88;;;27.00;99.60;;;;;;5110364;28;20092;-65
2023/09/02 12:40:13;;;;;;;10.82;6.97;;;26.70;99.50;;;;;;5109914;28;20024;-66
2023/09/02 12:42:40;;;;;;;12.13;8.30;;;26.60;99.90;;;;;;5105226;28;20059;-66
2023/09/02 12:45:08;;;;;;;12.23;7.55;;;27.00;99.90;;;;;;5112264;28;20366;-65